createdAt,value
2023-08-20T00:01:29.757Z,758.90
2023-08-20T00:03:57.236Z,760.40
2023-08-20T00:06:24.822Z,735.00
2023-08-20T00:08:51.949Z,747.30
2023-08-20T00:11:19.041Z,770.30
2023-08-20T00:13:46.060Z,740.38
2023-08-20T00:16:13.320Z,736.00
2023-08-20T00:21:56.515Z,740.60
2023-08-20T00:24:24.697Z,713.95
2023-08-20T00:26:51.872Z,722.95
2023-08-20T00:29:18.925Z,758.45
2023-08-20T00:31:45.965Z,747.78
2023-08-20T00:34:12.987Z,752.25
2023-08-20T00:36:40.017Z,759.47
2023-08-20T00:39:07.084Z,752.30
2023-08-20T00:41:34.262Z,723.78
2023-08-20T00:44:01.672Z,722.63
2023-08-20T00:46:28.808Z,746.85
2023-08-20T00:48:56.602Z,750.20
2023-08-20T00:51:24.401Z,722.17
2023-08-20T00:53:51.535Z,748.25
2023-08-20T00:56:18.653Z,724.90
2023-08-20T00:58:46.156Z,748.22
2023-08-20T01:01:13.264Z,742.97
2023-08-20T01:03:40.324Z,730.72
2023-08-20T01:06:15.047Z,751.42
2023-08-20T01:08:42.466Z,751.95
2023-08-20T01:11:17.716Z,736.22
2023-08-20T01:13:44.786Z,753.65
2023-08-20T01:16:11.897Z,756.30
2023-08-20T01:18:39.138Z,744.58
2023-08-20T01:21:12.465Z,761.08
2023-08-20T01:23:45.506Z,760.25
2023-08-20T01:26:21.661Z,750.72
2023-08-20T01:28:49.953Z,756.67
2023-08-20T01:31:17.015Z,752.00
2023-08-20T01:33:44.288Z,751.42
2023-08-20T01:36:11.336Z,752.75
2023-08-20T01:38:41.791Z,759.75
2023-08-20T01:43:35.741Z,767.53
2023-08-20T01:46:02.746Z,765.55
2023-08-20T01:48:29.744Z,732.47
2023-08-20T01:50:56.950Z,753.92
2023-08-20T01:53:24.040Z,744.78
2023-08-20T01:55:51.298Z,756.40
2023-08-20T01:58:18.371Z,747.67
2023-08-20T02:00:51.733Z,767.97
2023-08-20T02:03:18.692Z,763.97
2023-08-20T02:05:45.836Z,743.75
2023-08-20T02:08:12.955Z,744.28
2023-08-20T02:10:39.921Z,733.95
2023-08-20T02:13:08.659Z,729.90
2023-08-20T02:15:35.656Z,749.10
2023-08-20T02:18:02.815Z,734.78
2023-08-20T02:20:29.994Z,754.15
2023-08-20T02:22:57.138Z,733.47
2023-08-20T02:25:25.103Z,735.92
2023-08-20T02:27:52.725Z,717.90
2023-08-20T02:30:19.775Z,721.70
2023-08-20T02:32:46.880Z,749.38
2023-08-20T02:35:16.460Z,762.40
2023-08-20T02:37:43.494Z,752.42
2023-08-20T02:40:11.710Z,739.63
2023-08-20T02:42:38.784Z,739.50
2023-08-20T02:45:06.313Z,751.70
2023-08-20T02:47:33.571Z,753.53
2023-08-20T02:50:00.824Z,744.65
2023-08-20T02:52:27.839Z,764.72
2023-08-20T02:54:54.815Z,756.78
2023-08-20T02:57:22.940Z,768.83
2023-08-20T02:59:50.230Z,718.15
2023-08-20T03:02:17.208Z,700.65
2023-08-20T03:04:44.362Z,740.63
2023-08-20T03:07:11.572Z,738.80
2023-08-20T03:09:38.582Z,726.85
2023-08-20T03:12:05.784Z,743.10
2023-08-20T03:14:32.918Z,742.88
2023-08-20T03:16:59.859Z,728.15
2023-08-20T03:19:26.859Z,745.83
2023-08-20T03:21:53.776Z,729.72
2023-08-20T03:24:20.932Z,735.15
2023-08-20T03:26:49.152Z,746.45
2023-08-20T03:29:16.130Z,750.38
2023-08-20T03:31:43.258Z,750.08
2023-08-20T03:34:11.044Z,742.67
2023-08-20T03:36:38.063Z,747.08
2023-08-20T03:39:05.182Z,742.10
2023-08-20T03:41:32.157Z,738.13
2023-08-20T03:43:59.218Z,750.13
2023-08-20T03:46:26.319Z,744.28
2023-08-20T03:48:53.647Z,724.60
2023-08-20T03:51:20.611Z,725.65
2023-08-20T03:53:47.633Z,727.38
2023-08-20T03:56:14.631Z,742.85
2023-08-20T03:58:41.668Z,733.78
2023-08-20T04:01:08.672Z,750.70
2023-08-20T04:03:35.911Z,759.97
2023-08-20T04:06:06.971Z,741.25
2023-08-20T04:08:34.185Z,737.65
2023-08-20T04:11:01.262Z,737.22
2023-08-20T04:13:28.324Z,754.85
2023-08-20T04:15:55.326Z,729.00
2023-08-20T04:18:22.373Z,721.38
2023-08-20T04:20:51.592Z,758.30
2023-08-20T04:23:18.595Z,722.72
2023-08-20T04:25:46.532Z,738.40
2023-08-20T04:28:13.832Z,728.40
2023-08-20T04:30:40.839Z,726.50
2023-08-20T04:33:07.823Z,715.42
2023-08-20T04:35:35.217Z,696.80
2023-08-20T04:38:02.207Z,701.53
2023-08-20T04:40:29.248Z,703.85
2023-08-20T04:42:56.333Z,713.45
2023-08-20T04:45:23.366Z,719.95
2023-08-20T04:47:50.546Z,737.45
2023-08-20T04:50:19.938Z,741.70
2023-08-20T04:52:48.534Z,731.15
2023-08-20T04:55:17.096Z,709.53
2023-08-20T04:57:44.067Z,726.13
2023-08-20T05:00:11.422Z,737.72
2023-08-20T05:02:38.891Z,737.20
2023-08-20T05:05:06.318Z,736.30
2023-08-20T05:07:33.661Z,734.00
2023-08-20T05:10:01.131Z,724.85
2023-08-20T05:12:28.155Z,712.95
2023-08-20T05:14:55.095Z,746.03
2023-08-20T05:17:22.190Z,721.88
2023-08-20T05:19:49.169Z,731.95
2023-08-20T05:22:16.183Z,746.15
2023-08-20T05:24:43.343Z,753.33
2023-08-20T05:27:11.420Z,752.10
2023-08-20T05:29:39.077Z,758.17
2023-08-20T05:32:06.235Z,754.97
2023-08-20T05:34:33.252Z,736.35
2023-08-20T05:37:00.607Z,722.22
2023-08-20T05:39:27.748Z,750.90
2023-08-20T05:41:55.351Z,755.92
2023-08-20T05:44:22.967Z,748.90
2023-08-20T05:46:49.999Z,730.65
2023-08-20T05:49:19.989Z,760.97
2023-08-20T05:51:47.025Z,765.58
2023-08-20T05:54:14.099Z,763.70
2023-08-20T05:56:41.065Z,756.88
2023-08-20T05:59:08.131Z,750.38
2023-08-20T06:04:24.116Z,652.35
2023-08-20T06:06:51.201Z,663.20
2023-08-20T06:12:07.225Z,692.83
2023-08-20T06:14:34.662Z,686.97
2023-08-20T06:17:01.720Z,686.40
2023-08-20T06:19:28.731Z,683.88
2023-08-20T06:21:55.742Z,705.40
2023-08-20T06:27:24.853Z,697.38
2023-08-20T06:29:52.341Z,699.17
2023-08-20T06:32:19.298Z,710.13
2023-08-20T06:34:46.616Z,703.72
2023-08-20T06:37:13.555Z,712.45
2023-08-20T06:39:40.488Z,696.70
2023-08-20T06:42:07.658Z,687.25
2023-08-20T06:44:34.637Z,685.92
2023-08-20T06:47:01.687Z,676.92
2023-08-20T06:49:28.681Z,709.40
2023-08-20T06:51:55.721Z,706.38
2023-08-20T06:54:23.249Z,701.38
2023-08-20T06:56:51.091Z,714.42
2023-08-20T06:59:18.890Z,714.55
2023-08-20T07:01:45.843Z,717.38
2023-08-20T07:04:14.033Z,717.20
2023-08-20T07:06:41.110Z,733.13
2023-08-20T07:09:08.129Z,736.15
2023-08-20T07:11:35.114Z,720.05
2023-08-20T07:14:02.160Z,716.83
2023-08-20T07:19:32.234Z,722.08
2023-08-20T07:21:59.143Z,735.55
2023-08-20T07:24:30.764Z,711.70
2023-08-20T07:27:00.847Z,743.83
2023-08-20T07:29:28.220Z,736.72
2023-08-20T07:31:55.234Z,724.45
2023-08-20T07:34:22.254Z,716.53
2023-08-20T07:36:49.328Z,720.67
2023-08-20T07:39:19.306Z,743.75
2023-08-20T07:41:46.407Z,725.75
2023-08-20T07:44:13.449Z,708.35
2023-08-20T07:46:40.462Z,745.47
2023-08-20T07:49:07.699Z,734.17
2023-08-20T07:51:35.640Z,734.05
2023-08-20T07:54:02.604Z,720.97
2023-08-20T07:56:29.589Z,739.58
2023-08-20T07:58:56.676Z,724.78
2023-08-20T08:01:24.093Z,764.97
2023-08-20T08:03:51.164Z,763.65
2023-08-20T08:06:19.329Z,748.88
2023-08-20T08:08:46.304Z,765.85
2023-08-20T08:11:13.356Z,757.13
2023-08-20T08:13:40.413Z,764.75
2023-08-20T08:16:07.616Z,769.20
2023-08-20T08:18:34.745Z,762.47
2023-08-20T08:21:01.749Z,763.72
2023-08-20T08:23:28.695Z,771.83
2023-08-20T08:25:56.196Z,759.25
2023-08-20T08:28:23.193Z,769.47
2023-08-20T08:30:50.679Z,588.28
2023-08-20T08:33:17.831Z,585.17
2023-08-20T08:35:44.778Z,585.42
2023-08-20T08:38:11.845Z,585.15
2023-08-20T08:40:41.644Z,592.53
2023-08-20T08:43:08.922Z,601.97
2023-08-20T08:45:36.085Z,608.85
2023-08-20T08:48:04.026Z,611.03
2023-08-20T08:50:32.047Z,615.30
2023-08-20T08:53:00.681Z,610.90
2023-08-20T08:55:27.691Z,618.47
2023-08-20T08:57:54.647Z,613.88
2023-08-20T09:00:22.100Z,620.13
2023-08-20T09:02:49.054Z,617.13
2023-08-20T09:05:16.225Z,607.55
2023-08-20T09:07:46.342Z,613.90
2023-08-20T09:10:13.568Z,612.03
2023-08-20T09:12:41.023Z,601.67
2023-08-20T09:15:11.583Z,610.45
2023-08-20T09:17:38.749Z,617.53
2023-08-20T09:20:06.238Z,614.53
2023-08-20T09:22:33.440Z,609.70
2023-08-20T09:25:00.563Z,610.08
2023-08-20T09:27:27.910Z,608.00
2023-08-20T09:30:06.212Z,617.22
2023-08-20T09:32:33.192Z,628.90
2023-08-20T09:35:00.192Z,632.92
2023-08-20T09:37:27.253Z,634.33
2023-08-20T09:39:54.340Z,640.97
2023-08-20T09:42:21.710Z,637.03
2023-08-20T09:54:05.673Z,594.00
2023-08-20T09:56:32.872Z,596.70
2023-08-20T09:59:00.718Z,568.88
2023-08-20T10:01:28.570Z,573.15
2023-08-20T10:03:56.233Z,571.00
2023-08-20T10:06:23.460Z,577.83
2023-08-20T10:08:51.936Z,579.90
2023-08-20T10:11:18.893Z,582.17
2023-08-20T10:13:45.930Z,586.78
2023-08-20T10:16:14.277Z,584.38
2023-08-20T10:18:41.585Z,584.00
2023-08-20T10:21:12.003Z,581.22
2023-08-20T10:26:09.447Z,651.50
2023-08-20T10:28:36.586Z,650.78
2023-08-20T10:31:09.481Z,647.33
2023-08-20T10:33:39.369Z,651.88
2023-08-20T10:36:10.358Z,653.72
2023-08-20T10:38:38.375Z,654.83
2023-08-20T10:41:07.964Z,652.92
2023-08-20T10:52:49.429Z,561.17
2023-08-20T10:55:16.591Z,543.53
2023-08-20T10:57:43.648Z,470.15
2023-08-20T11:00:13.136Z,507.52
2023-08-20T11:02:41.897Z,522.87
2023-08-20T11:05:23.018Z,515.70
2023-08-20T11:07:50.526Z,520.75
2023-08-20T11:10:18.024Z,454.80
2023-08-20T11:12:47.308Z,464.65
2023-08-20T11:15:15.185Z,481.77
2023-08-20T11:17:51.686Z,542.50
2023-08-20T11:20:18.986Z,519.47
2023-08-20T11:22:46.288Z,485.45
2023-08-20T11:25:16.480Z,454.25
2023-08-20T11:30:12.304Z,462.63
2023-08-20T11:32:39.639Z,469.10
2023-08-20T11:35:08.254Z,480.13
2023-08-20T11:37:35.883Z,490.95
2023-08-20T11:40:03.202Z,448.05
2023-08-20T11:42:30.460Z,452.02
2023-08-20T11:44:58.092Z,461.70
2023-08-20T11:47:25.273Z,492.85
2023-08-20T11:50:08.983Z,474.02
2023-08-20T11:52:37.401Z,495.05
2023-08-20T11:55:05.188Z,399.70
2023-08-20T11:57:33.107Z,389.95
2023-08-20T12:00:14.833Z,422.05
2023-08-20T12:02:42.265Z,438.88
2023-08-20T12:05:09.456Z,438.20
2023-08-20T12:07:36.887Z,454.55
2023-08-20T12:10:23.104Z,469.45
2023-08-20T12:12:50.474Z,462.08
2023-08-20T12:15:18.961Z,467.80
2023-08-20T12:17:56.620Z,472.80
2023-08-20T12:20:23.756Z,471.02
2023-08-20T12:22:50.740Z,474.95
2023-08-20T12:25:17.868Z,485.88
2023-08-20T12:27:45.120Z,353.50
2023-08-20T12:30:12.549Z,360.75
2023-08-20T12:32:39.624Z,372.63
2023-08-20T12:35:06.885Z,381.55
2023-08-20T12:37:34.589Z,397.55
2023-08-20T12:40:01.831Z,410.17
2023-08-20T12:42:28.903Z,430.10
2023-08-20T12:44:55.895Z,458.42
2023-08-20T12:47:23.057Z,499.05
2023-08-20T12:49:50.090Z,430.27
2023-08-20T12:52:17.764Z,468.02
2023-08-20T12:54:47.448Z,479.73
2023-08-20T12:57:14.421Z,491.70
2023-08-20T12:59:41.605Z,496.27
2023-08-20T13:02:08.604Z,498.92
2023-08-20T13:04:35.862Z,490.17
2023-08-20T13:07:03.230Z,496.75
2023-08-20T13:09:30.460Z,511.15
2023-08-20T13:11:58.636Z,504.85
2023-08-20T13:14:25.781Z,457.48
2023-08-20T13:16:52.921Z,474.42
2023-08-20T13:19:19.876Z,467.05
2023-08-20T13:21:46.973Z,470.63
2023-08-20T13:24:14.541Z,464.95
2023-08-20T13:26:41.544Z,462.50
2023-08-20T13:29:08.545Z,476.30
2023-08-20T13:31:37.366Z,448.25
2023-08-20T13:34:04.504Z,453.17
2023-08-20T13:36:31.912Z,445.92
2023-08-20T13:38:58.971Z,442.92
2023-08-20T13:41:26.029Z,433.67
2023-08-20T13:49:44.655Z,305.75
2023-08-20T13:52:11.850Z,312.67
2023-08-20T13:54:38.906Z,308.65
2023-08-20T13:57:06.194Z,303.05
2023-08-20T13:59:33.344Z,305.95
2023-08-20T14:02:00.424Z,301.40
2023-08-20T14:04:27.503Z,311.10
2023-08-20T14:06:54.601Z,293.63
2023-08-20T14:09:21.733Z,299.00
2023-08-20T14:11:48.771Z,303.95
2023-08-20T14:14:15.854Z,302.20
2023-08-20T14:16:42.881Z,311.02
2023-08-20T14:19:10.025Z,306.63
2023-08-20T14:21:37.624Z,311.73
2023-08-20T14:24:04.791Z,302.45
2023-08-20T14:26:31.757Z,307.05
2023-08-20T14:28:58.677Z,297.95
2023-08-20T14:31:28.163Z,301.17
2023-08-20T14:33:56.292Z,305.17
2023-08-20T14:36:23.274Z,315.02
2023-08-20T14:38:50.343Z,311.98
2023-08-20T14:41:17.311Z,305.02
2023-08-20T14:43:44.343Z,295.08
2023-08-20T14:46:11.440Z,301.17
2023-08-20T14:48:42.586Z,298.27
2023-08-20T14:51:09.876Z,314.40
2023-08-20T14:53:36.836Z,311.13
2023-08-20T14:56:04.811Z,305.92
2023-08-20T14:58:33.052Z,305.23
2023-08-20T15:01:01.225Z,313.85
2023-08-20T15:03:28.328Z,316.77
2023-08-20T15:05:55.334Z,300.80
2023-08-20T15:08:22.285Z,306.70
2023-08-20T15:10:59.715Z,320.25
2023-08-20T15:13:28.930Z,314.73
2023-08-20T15:15:56.317Z,316.65
2023-08-20T15:18:24.174Z,321.63
2023-08-20T15:21:00.855Z,305.42
2023-08-20T15:23:28.692Z,309.70
2023-08-20T15:25:56.799Z,305.88
2023-08-20T15:28:27.825Z,307.58
2023-08-20T15:30:55.654Z,314.10
2023-08-20T15:33:23.044Z,317.17
2023-08-20T15:35:50.152Z,322.15
2023-08-20T15:38:17.823Z,311.05
2023-08-20T15:40:44.922Z,317.30
2023-08-20T15:43:11.958Z,309.85
2023-08-20T15:45:39.040Z,304.27
2023-08-20T15:48:06.297Z,314.73
2023-08-20T15:50:33.350Z,303.27
2023-08-20T15:53:00.447Z,307.67
2023-08-20T15:55:27.446Z,314.95
2023-08-20T15:57:54.620Z,310.38
2023-08-20T16:00:22.710Z,314.40
2023-08-20T16:02:50.652Z,310.88
2023-08-20T16:05:18.656Z,306.27
2023-08-20T16:07:45.787Z,322.38
2023-08-20T16:10:13.030Z,306.35
2023-08-20T16:12:40.834Z,305.02
2023-08-20T16:15:08.336Z,314.33
2023-08-20T16:17:35.893Z,311.55
2023-08-20T16:20:04.454Z,305.85
2023-08-20T16:22:34.963Z,308.33
2023-08-20T16:27:28.761Z,310.70
2023-08-20T16:29:55.811Z,310.20
2023-08-20T16:32:22.901Z,308.05
2023-08-20T16:34:50.124Z,304.48
2023-08-20T16:37:17.154Z,307.77
2023-08-20T16:45:56.880Z,310.38
2023-08-20T16:48:23.906Z,301.48
2023-08-20T16:50:50.962Z,310.73
2023-08-20T16:53:18.083Z,298.85
2023-08-20T16:55:51.193Z,311.35
2023-08-20T16:58:19.117Z,300.83
2023-08-20T17:00:46.735Z,305.60
2023-08-20T17:03:14.424Z,306.63
2023-08-20T17:05:41.742Z,309.48
2023-08-20T17:08:09.008Z,311.35
2023-08-20T17:10:36.504Z,303.33
2023-08-20T17:15:53.197Z,311.67
2023-08-20T17:18:20.849Z,302.55
2023-08-20T17:27:07.549Z,298.10
2023-08-20T17:29:38.093Z,306.15
2023-08-20T17:34:46.640Z,313.95
2023-08-20T17:37:13.917Z,308.63
2023-08-20T17:39:41.492Z,296.42
2023-08-20T17:42:08.781Z,308.40
2023-08-20T17:44:36.273Z,299.50
2023-08-20T17:47:03.374Z,294.48
2023-08-20T17:49:30.419Z,293.25
2023-08-20T17:51:57.433Z,289.90
2023-08-20T17:54:24.752Z,290.90
2023-08-20T17:56:51.867Z,301.25
2023-08-20T17:59:18.896Z,295.13
2023-08-20T18:01:45.982Z,295.08
2023-08-20T18:04:13.055Z,293.13
2023-08-20T18:06:41.584Z,303.92
2023-08-20T18:09:08.740Z,297.88
2023-08-20T18:11:35.839Z,300.25
2023-08-20T18:14:03.004Z,305.40
2023-08-20T18:16:30.098Z,303.83
2023-08-20T18:18:57.316Z,305.67
2023-08-20T18:21:24.374Z,291.10
2023-08-20T18:23:54.655Z,299.85
2023-08-20T18:26:23.039Z,293.73
2023-08-20T18:28:51.322Z,292.17
2023-08-20T18:31:21.465Z,311.55
2023-08-20T18:33:48.682Z,305.42
2023-08-20T18:36:15.837Z,305.70
2023-08-20T18:38:45.764Z,294.95
2023-08-20T18:47:52.722Z,397.27
2023-08-20T18:50:19.734Z,421.23
2023-08-20T18:52:46.843Z,447.98
2023-08-20T18:55:13.792Z,448.65
2023-08-20T18:57:41.282Z,436.88
2023-08-20T19:00:13.258Z,418.42
2023-08-20T19:02:40.677Z,446.58
2023-08-20T19:05:10.811Z,458.15
2023-08-20T19:07:39.063Z,467.00
2023-08-20T19:10:06.395Z,475.85
2023-08-20T19:12:34.461Z,468.25
2023-08-20T19:15:01.911Z,469.45
2023-08-20T19:17:31.216Z,463.27
2023-08-20T19:19:58.203Z,472.90
2023-08-20T19:22:34.327Z,476.92
2023-08-20T19:25:01.612Z,479.90
2023-08-20T19:27:32.492Z,502.42
2023-08-20T19:29:59.960Z,488.80
2023-08-20T19:32:27.514Z,474.00
2023-08-20T19:38:11.730Z,496.73
2023-08-20T19:40:39.150Z,516.00
2023-08-20T19:43:06.376Z,685.42
2023-08-20T19:45:33.989Z,659.72
2023-08-20T19:48:01.326Z,655.17
2023-08-20T19:56:35.600Z,644.47
2023-08-20T19:59:04.280Z,643.63
2023-08-20T20:01:32.792Z,666.80
2023-08-20T20:04:00.049Z,660.67
2023-08-20T20:06:27.081Z,642.05
2023-08-20T20:08:54.143Z,638.38
2023-08-20T20:11:21.454Z,627.92
2023-08-20T20:14:06.830Z,113.23
2023-08-20T20:16:34.083Z,17.80
2023-08-20T20:19:01.293Z,32.35
2023-08-20T20:21:28.360Z,34.92
2023-08-20T20:23:55.350Z,44.00
2023-08-20T20:26:22.396Z,48.30
2023-08-20T20:28:51.766Z,97.32
2023-08-20T20:31:18.872Z,12.13
2023-08-20T20:37:19.019Z,84.18
2023-08-20T20:39:46.030Z,7.15
2023-08-20T20:42:13.075Z,35.13
2023-08-20T20:44:40.224Z,81.15
2023-08-20T20:47:07.335Z,21.95
2023-08-20T20:49:34.358Z,48.30
2023-08-20T20:52:01.921Z,41.75
2023-08-20T20:54:28.954Z,18.48
2023-08-20T20:56:55.983Z,11.88
2023-08-20T20:59:23.104Z,4.65
2023-08-20T21:01:50.162Z,7.50
2023-08-20T21:04:17.250Z,7.10
2023-08-20T21:06:44.262Z,7.70
2023-08-20T21:09:11.208Z,4.40
2023-08-20T21:11:38.299Z,9.27
2023-08-20T21:14:07.519Z,5.97
2023-08-20T21:16:34.855Z,7.63
2023-08-20T21:19:02.019Z,22.17
2023-08-20T21:21:29.573Z,7.22
2023-08-20T21:23:57.080Z,20.08
2023-08-20T21:26:24.705Z,5.63
2023-08-20T21:28:52.011Z,6.93
2023-08-20T21:31:19.223Z,3.55
2023-08-20T21:33:46.297Z,4.18
2023-08-20T21:36:13.474Z,4.00
2023-08-20T21:38:40.552Z,5.40
2023-08-20T21:41:07.613Z,143.27
2023-08-20T21:43:34.699Z,89.03
2023-08-20T21:46:01.704Z,61.28
2023-08-20T21:48:28.684Z,77.65
2023-08-20T21:50:55.643Z,81.97
2023-08-20T21:53:22.693Z,100.40
2023-08-20T21:55:56.512Z,124.78
2023-08-20T21:58:23.651Z,144.07
2023-08-20T22:03:53.301Z,65.05
2023-08-20T22:06:24.141Z,27.35
2023-08-20T22:08:51.108Z,31.88
2023-08-20T22:11:18.152Z,20.63
2023-08-20T22:13:45.805Z,39.78
2023-08-20T22:16:14.083Z,65.70
2023-08-20T22:18:41.166Z,59.15
2023-08-20T22:21:08.215Z,46.53
2023-08-20T22:23:35.271Z,66.40
2023-08-20T22:26:02.316Z,65.10
2023-08-20T22:28:29.968Z,48.35
2023-08-20T22:30:57.074Z,54.88
2023-08-20T22:33:24.532Z,54.63
2023-08-20T22:35:51.893Z,48.67
2023-08-20T22:38:18.870Z,61.38
2023-08-20T22:40:45.873Z,64.57
2023-08-20T22:43:12.984Z,121.93
2023-08-20T22:45:40.133Z,92.47
2023-08-20T22:48:07.297Z,131.13
2023-08-20T22:50:34.389Z,133.75
2023-08-20T22:53:01.456Z,111.35
2023-08-20T22:55:30.318Z,116.15
2023-08-20T22:57:59.938Z,110.00
2023-08-20T23:00:27.339Z,101.85
2023-08-20T23:02:54.377Z,74.95
2023-08-20T23:05:21.428Z,90.20
2023-08-20T23:07:48.358Z,91.55
2023-08-20T23:10:15.385Z,96.72
2023-08-20T23:12:42.384Z,78.18
2023-08-20T23:15:10.830Z,111.47
2023-08-20T23:17:37.961Z,110.55
2023-08-20T23:20:07.812Z,119.15
2023-08-20T23:22:34.878Z,174.70
2023-08-20T23:25:01.988Z,181.32
2023-08-20T23:27:29.269Z,153.27
2023-08-20T23:30:00.954Z,150.35
2023-08-20T23:32:28.299Z,159.27
2023-08-20T23:34:55.809Z,167.70
2023-08-20T23:37:22.809Z,159.95
2023-08-20T23:39:49.815Z,165.43
2023-08-20T23:42:16.873Z,183.52
2023-08-20T23:44:43.944Z,165.02
2023-08-20T23:47:11.577Z,162.63
2023-08-20T23:49:38.603Z,163.80
2023-08-20T23:52:05.771Z,153.00
2023-08-20T23:54:32.752Z,138.98
2023-08-20T23:56:59.782Z,134.25
2023-08-20T23:59:26.778Z,131.82
